Time;durP1;ratioP1;P1;durP2;ratioP2;P2;SDS_P1;SDS_P2;PMS_P1;PMS_P2;Temp;Humidity;BMP_temperature;BMP_pressure;BME280_temperature;BME280_humidity;BME280_pressure;Samples;Min_cycle;Max_cycle;Signal;HPM_P1;HPM_P2
2022/01/21 00:01:10;;;;;;;;;;;;;;;;;;5017994;28;20248;-24
2022/01/21 00:03:36;;;;;;;;;;;;;;;;;;5017613;28;19917;-24
2022/01/21 00:06:06;;;;;;;;;;;;;;;;;;5017640;28;19909;-24
2022/01/21 00:08:32;;;;;;;;;;;;;;;;;;5017770;28;20264;-23
2022/01/21 00:10:58;;;;;;;;;;;;;;;;;;5018000;28;19910;-24
2022/01/21 00:13:44;;;;;;;;;;;;;;;;;;5018529;28;19920;-24
2022/01/21 00:16:10;;;;;;;;;;;;;;;;;;5017212;28;20351;-24
2022/01/21 00:18:36;;;;;;;;;;;;;;;;;;5017620;28;19972;-24
2022/01/21 00:32:01;;;;;;;;;;;;;;;;;;5017359;28;20051;-24
2022/01/21 00:34:27;;;;;;;;;;;;;;;;;;5017336;28;19945;-24
2022/01/21 00:36:53;;;;;;;;;;;;;;;;;;5016824;28;20400;-24
2022/01/21 00:39:24;;;;;;;;;;;;;;;;;;5017336;28;19956;-24
2022/01/21 00:44:31;;;;;;;;;;;;;;;;;;5017215;28;20341;-24
2022/01/21 00:46:57;;;;;;;;;;;;;;;;;;5017846;28;19985;-24
2022/01/21 00:49:23;;;;;;;;;;;;;;;;;;5017205;28;20180;-24
2022/01/21 00:51:49;;;;;;;;;;;;;;;;;;5017459;28;19969;-24
2022/01/21 00:54:15;;;;;;;;;;;;;;;;;;5017312;28;19914;-24
2022/01/21 00:56:41;;;;;;;;;;;;;;;;;;5017121;28;20264;-24
2022/01/21 00:59:07;;;;;;;;;;;;;;;;;;5017088;28;19913;-24
2022/01/21 01:01:33;;;;;;;;;;;;;;;;;;5017014;28;20405;-24
2022/01/21 01:03:59;;;;;;;;;;;;;;;;;;5017644;28;19937;-24
2022/01/21 01:06:26;;;;;;;;;;;;;;;;;;5017170;28;19968;-24
2022/01/21 01:08:53;;;;;;;;;;;;;;;;;;5016987;28;19932;-24
2022/01/21 01:21:44;;;;;;;;;;;;;;;;;;5016881;28;19971;-24
2022/01/21 01:29:21;;;;;;;;;;;;;;;;;;5016743;28;19921;-24
2022/01/21 01:31:47;;;;;;;;;;;;;;;;;;5017159;28;19920;-24
2022/01/21 01:34:14;;;;;;;;;;;;;;;;;;5016615;28;19921;-24
2022/01/21 01:36:43;;;;;;;;;;;;;;;;;;5016804;28;20252;-24
2022/01/21 01:42:14;;;;;;;;;;;;;;;;;;5016594;28;20352;-24
2022/01/21 01:50:09;;;;;;;;;;;;;;;;;;5015546;28;20067;-24
2022/01/21 01:52:38;;;;;;;;;;;;;;;;;;5016760;28;19913;-24
2022/01/21 01:55:05;;;;;;;;;;;;;;;;;;5016442;28;20354;-24
2022/01/21 01:57:31;;;;;;;;;;;;;;;;;;5016156;28;20268;-24
2022/01/21 01:59:57;;;;;;;;;;;;;;;;;;5016136;28;20260;-24
2022/01/21 02:02:23;;;;;;;;;;;;;;;;;;5016650;28;19953;-24
2022/01/21 02:04:49;;;;;;;;;;;;;;;;;;5016325;28;19940;-24
2022/01/21 02:07:15;;;;;;;;;;;;;;;;;;5015859;28;19957;-24
2022/01/21 02:09:42;;;;;;;;;;;;;;;;;;5016156;28;20348;-24
2022/01/21 02:12:08;;;;;;;;;;;;;;;;;;5016193;28;19968;-24
2022/01/21 02:14:37;;;;;;;;;;;;;;;;;;5015853;28;20265;-24
2022/01/21 02:22:15;;;;;;;;;;;;;;;;;;5015832;28;20364;-24
2022/01/21 02:24:58;;;;;;;;;;;;;;;;;;5016720;28;19914;-24
2022/01/21 02:27:24;;;;;;;;;;;;;;;;;;5015587;28;19909;-24
2022/01/21 02:29:59;;;;;;;;;;;;;;;;;;5015869;28;20233;-24
2022/01/21 02:32:25;;;;;;;;;;;;;;;;;;5015798;28;20386;-24
2022/01/21 02:34:51;;;;;;;;;;;;;;;;;;5015704;28;19913;-24
2022/01/21 02:37:18;;;;;;;;;;;;;;;;;;5015824;28;19953;-24
2022/01/21 02:39:44;;;;;;;;;;;;;;;;;;5015881;28;19914;-24
2022/01/21 02:42:10;;;;;;;;;;;;;;;;;;5015988;28;20244;-24
2022/01/21 02:44:37;;;;;;;;;;;;;;;;;;5015646;28;20016;-24
2022/01/21 02:47:05;;;;;;;;;;;;;;;;;;5015577;28;20276;-24
2022/01/21 02:49:31;;;;;;;;;;;;;;;;;;5015305;28;20293;-24
2022/01/21 02:51:57;;;;;;;;;;;;;;;;;;5015315;28;19964;-24
2022/01/21 02:54:23;;;;;;;;;;;;;;;;;;5015224;28;19952;-24
2022/01/21 02:56:49;;;;;;;;;;;;;;;;;;5015660;28;19925;-24
2022/01/21 02:59:15;;;;;;;;;;;;;;;;;;5015202;28;20312;-24
2022/01/21 03:01:42;;;;;;;;;;;;;;;;;;5014985;28;19909;-24
2022/01/21 03:04:09;;;;;;;;;;;;;;;;;;5015643;28;20012;-24
2022/01/21 03:06:36;;;;;;;;;;;;;;;;;;5015119;28;19932;-24
2022/01/21 03:09:03;;;;;;;;;;;;;;;;;;5015013;28;19980;-24
2022/01/21 03:11:29;;;;;;;;;;;;;;;;;;5015032;28;19910;-24
2022/01/21 03:13:55;;;;;;;;;;;;;;;;;;5015080;28;19913;-24
2022/01/21 03:16:21;;;;;;;;;;;;;;;;;;5015003;28;19971;-24
2022/01/21 03:18:47;;;;;;;;;;;;;;;;;;5014849;28;19964;-24
2022/01/21 03:21:16;;;;;;;;;;;;;;;;;;5015214;28;19914;-24
2022/01/21 03:23:43;;;;;;;;;;;;;;;;;;5015010;28;20280;-24
2022/01/21 03:26:09;;;;;;;;;;;;;;;;;;5015163;28;19913;-24
2022/01/21 03:28:35;;;;;;;;;;;;;;;;;;5014856;28;19913;-24
2022/01/21 03:31:01;;;;;;;;;;;;;;;;;;5014973;28;19910;-24
2022/01/21 03:33:28;;;;;;;;;;;;;;;;;;5015423;28;20404;-24
2022/01/21 03:35:54;;;;;;;;;;;;;;;;;;5013838;28;19937;-24
2022/01/21 03:38:20;;;;;;;;;;;;;;;;;;5014756;28;19914;-24
2022/01/21 03:40:47;;;;;;;;;;;;;;;;;;5014745;28;20001;-24
2022/01/21 03:43:14;;;;;;;;;;;;;;;;;;5015075;28;19924;-24
2022/01/21 03:45:40;;;;;;;;;;;;;;;;;;5015009;28;20237;-24
2022/01/21 03:48:06;;;;;;;;;;;;;;;;;;5014906;28;20252;-24
2022/01/21 03:50:32;;;;;;;;;;;;;;;;;;5014975;28;20013;-24
2022/01/21 03:52:59;;;;;;;;;;;;;;;;;;5014704;28;19913;-24
2022/01/21 03:55:25;;;;;;;;;;;;;;;;;;5014859;28;20345;-24
2022/01/21 03:57:51;;;;;;;;;;;;;;;;;;5014616;28;19910;-24
2022/01/21 04:00:17;;;;;;;;;;;;;;;;;;5014904;28;20016;-25
2022/01/21 04:02:43;;;;;;;;;;;;;;;;;;5014637;28;19969;-24
2022/01/21 04:05:09;;;;;;;;;;;;;;;;;;5013642;28;19935;-24
2022/01/21 04:07:36;;;;;;;;;;;;;;;;;;5014552;28;19921;-24
2022/01/21 04:10:02;;;;;;;;;;;;;;;;;;5014510;28;20392;-24
2022/01/21 04:12:28;;;;;;;;;;;;;;;;;;5016281;28;19944;-24
2022/01/21 04:14:54;;;;;;;;;;;;;;;;;;5018289;28;19944;-24
2022/01/21 04:17:23;;;;;;;;;;;;;;;;;;5017995;28;20400;-24
2022/01/21 04:19:49;;;;;;;;;;;;;;;;;;5017483;28;19925;-24
2022/01/21 04:22:15;;;;;;;;;;;;;;;;;;5017990;28;19929;-25
2022/01/21 04:24:44;;;;;;;;;;;;;;;;;;5017015;28;19925;-24
2022/01/21 04:27:10;;;;;;;;;;;;;;;;;;5018103;28;20004;-24
2022/01/21 04:29:36;;;;;;;;;;;;;;;;;;5017865;28;19960;-24
2022/01/21 04:32:02;;;;;;;;;;;;;;;;;;5018314;28;19910;-24
2022/01/21 04:34:28;;;;;;;;;;;;;;;;;;5017946;28;20230;-24
2022/01/21 04:36:54;;;;;;;;;;;;;;;;;;5017491;28;19913;-24
2022/01/21 04:39:27;;;;;;;;;;;;;;;;;;5018103;28;20000;-24
2022/01/21 04:47:24;;;;;;;;;;;;;;;;;;5017368;28;19915;-24
2022/01/21 04:49:50;;;;;;;;;;;;;;;;;;5017468;28;19913;-24
2022/01/21 04:52:16;;;;;;;;;;;;;;;;;;5017533;28;20256;-25
2022/01/21 04:54:42;;;;;;;;;;;;;;;;;;5017190;28;20240;-25
2022/01/21 04:57:08;;;;;;;;;;;;;;;;;;5017044;28;19979;-24
2022/01/21 04:59:34;;;;;;;;;;;;;;;;;;5017563;28;19972;-24
2022/01/21 05:02:00;;;;;;;;;;;;;;;;;;5017030;28;20340;-24
2022/01/21 05:04:26;;;;;;;;;;;;;;;;;;5016978;28;20382;-25
2022/01/21 05:06:53;;;;;;;;;;;;;;;;;;5016920;28;19968;-24
2022/01/21 05:09:23;;;;;;;;;;;;;;;;;;5017147;28;19923;-24
2022/01/21 05:11:51;;;;;;;;;;;;;;;;;;5016595;28;19929;-25
2022/01/21 05:14:24;;;;;;;;;;;;;;;;;;5016317;28;19917;-25
2022/01/21 05:16:52;;;;;;;;;;;;;;;;;;5017179;28;20244;-25
2022/01/21 05:19:19;;;;;;;;;;;;;;;;;;5016248;28;19922;-25
2022/01/21 05:21:45;;;;;;;;;;;;;;;;;;5017174;28;19948;-25
2022/01/21 05:24:11;;;;;;;;;;;;;;;;;;5015206;28;19914;-25
2022/01/21 05:26:39;;;;;;;;;;;;;;;;;;5016141;28;19917;-25
2022/01/21 05:29:05;;;;;;;;;;;;;;;;;;5016065;28;19913;-24
2022/01/21 05:31:31;;;;;;;;;;;;;;;;;;5016121;28;19906;-23
2022/01/21 05:33:57;;;;;;;;;;;;;;;;;;5016720;28;19918;-24
2022/01/21 05:36:23;;;;;;;;;;;;;;;;;;5016253;28;19921;-24
2022/01/21 05:38:49;;;;;;;;;;;;;;;;;;5016075;28;19952;-24
2022/01/21 05:41:15;;;;;;;;;;;;;;;;;;5016244;28;19910;-24
2022/01/21 05:43:45;;;;;;;;;;;;;;;;;;5015884;28;19983;-24
2022/01/21 05:49:16;;;;;;;;;;;;;;;;;;4975080;28;19961;-24
2022/01/21 05:51:42;;;;;;;;;;;;;;;;;;4974709;28;20345;-24
2022/01/21 05:54:08;;;;;;;;;;;;;;;;;;4993632;28;19953;-24
2022/01/21 05:56:34;;;;;;;;;;;;;;;;;;5013995;28;19918;-24
2022/01/21 05:59:00;;;;;;;;;;;;;;;;;;5015475;28;19910;-25
2022/01/21 06:01:26;;;;;;;;;;;;;;;;;;5015812;28;20003;-24
2022/01/21 06:03:52;;;;;;;;;;;;;;;;;;5015269;28;19909;-24
2022/01/21 06:06:18;;;;;;;;;;;;;;;;;;5015357;28;19917;-25
2022/01/21 06:08:44;;;;;;;;;;;;;;;;;;5015415;28;19918;-25
2022/01/21 06:11:10;;;;;;;;;;;;;;;;;;5014449;28;19914;-25
2022/01/21 06:13:37;;;;;;;;;;;;;;;;;;5015284;28;19987;-25
2022/01/21 06:16:03;;;;;;;;;;;;;;;;;;5014915;28;20374;-25
2022/01/21 06:18:29;;;;;;;;;;;;;;;;;;5014916;28;19917;-25
2022/01/21 06:20:55;;;;;;;;;;;;;;;;;;5015694;28;20241;-25
2022/01/21 06:23:21;;;;;;;;;;;;;;;;;;5015214;28;20237;-25
2022/01/21 06:25:47;;;;;;;;;;;;;;;;;;5015330;28;20355;-25
2022/01/21 06:28:13;;;;;;;;;;;;;;;;;;5014996;28;19913;-25
2022/01/21 06:30:39;;;;;;;;;;;;;;;;;;5014886;28;19913;-25
2022/01/21 06:33:05;;;;;;;;;;;;;;;;;;5014779;28;20364;-25
2022/01/21 06:35:31;;;;;;;;;;;;;;;;;;5014873;28;19913;-24
2022/01/21 06:37:57;;;;;;;;;;;;;;;;;;5014942;28;19929;-25
2022/01/21 06:40:24;;;;;;;;;;;;;;;;;;5014861;28;19966;-25
2022/01/21 06:42:50;;;;;;;;;;;;;;;;;;5015180;28;19914;-25
2022/01/21 06:45:16;;;;;;;;;;;;;;;;;;5014316;28;19914;-25
2022/01/21 06:47:42;;;;;;;;;;;;;;;;;;5014562;28;19913;-24
2022/01/21 06:50:09;;;;;;;;;;;;;;;;;;5013712;28;19913;-25
2022/01/21 06:52:35;;;;;;;;;;;;;;;;;;5014564;28;19940;-24
2022/01/21 06:55:01;;;;;;;;;;;;;;;;;;5014715;28;19913;-24
2022/01/21 06:57:27;;;;;;;;;;;;;;;;;;5014789;28;19979;-24
2022/01/21 06:59:53;;;;;;;;;;;;;;;;;;5014494;28;19921;-25
2022/01/21 07:02:19;;;;;;;;;;;;;;;;;;5014580;28;19917;-25
2022/01/21 07:04:45;;;;;;;;;;;;;;;;;;5015066;28;19955;-25
2022/01/21 07:07:11;;;;;;;;;;;;;;;;;;5014523;28;19911;-25
2022/01/21 07:09:37;;;;;;;;;;;;;;;;;;5014921;28;19929;-25
2022/01/21 07:12:03;;;;;;;;;;;;;;;;;;5013861;28;19920;-25
2022/01/21 07:14:29;;;;;;;;;;;;;;;;;;5014024;28;20232;-25
2022/01/21 07:16:55;;;;;;;;;;;;;;;;;;5013652;28;19913;-25
2022/01/21 07:19:21;;;;;;;;;;;;;;;;;;5013566;28;20062;-24
2022/01/21 07:21:47;;;;;;;;;;;;;;;;;;5013790;28;19917;-24
2022/01/21 07:24:13;;;;;;;;;;;;;;;;;;5013802;28;19997;-25
2022/01/21 07:26:39;;;;;;;;;;;;;;;;;;5013495;28;19932;-25
2022/01/21 07:29:05;;;;;;;;;;;;;;;;;;5013880;28;19925;-25
2022/01/21 07:31:31;;;;;;;;;;;;;;;;;;5013617;28;19978;-24
2022/01/21 07:33:58;;;;;;;;;;;;;;;;;;5013660;28;19947;-24
2022/01/21 07:36:24;;;;;;;;;;;;;;;;;;5012625;28;19960;-25
2022/01/21 07:38:50;;;;;;;;;;;;;;;;;;5013824;28;19913;-25
2022/01/21 07:41:16;;;;;;;;;;;;;;;;;;5013884;28;19914;-25
2022/01/21 07:43:42;;;;;;;;;;;;;;;;;;5014140;28;19909;-25
2022/01/21 07:46:08;;;;;;;;;;;;;;;;;;5014882;28;20007;-25
2022/01/21 07:48:34;;;;;;;;;;;;;;;;;;5017331;28;19913;-25
2022/01/21 07:51:00;;;;;;;;;;;;;;;;;;5017974;28;19920;-25
2022/01/21 07:53:26;;;;;;;;;;;;;;;;;;5017916;28;19925;-25
2022/01/21 07:55:53;;;;;;;;;;;;;;;;;;5017826;28;19914;-25
2022/01/21 07:58:19;;;;;;;;;;;;;;;;;;5016779;28;19932;-25
2022/01/21 08:00:45;;;;;;;;;;;;;;;;;;5017918;28;20261;-25
2022/01/21 08:03:12;;;;;;;;;;;;;;;;;;5016593;28;20001;-25
2022/01/21 08:05:38;;;;;;;;;;;;;;;;;;5017455;28;19913;-25
2022/01/21 08:08:07;;;;;;;;;;;;;;;;;;5017608;28;20367;-25
2022/01/21 08:10:33;;;;;;;;;;;;;;;;;;5018110;28;20359;-25
2022/01/21 08:13:00;;;;;;;;;;;;;;;;;;5017648;28;19975;-25
2022/01/21 08:15:26;;;;;;;;;;;;;;;;;;5017311;28;19917;-23
2022/01/21 08:17:52;;;;;;;;;;;;;;;;;;5017443;28;19916;-24
2022/01/21 08:20:18;;;;;;;;;;;;;;;;;;5017294;28;19932;-24
2022/01/21 08:22:44;;;;;;;;;;;;;;;;;;5017854;28;20087;-24
2022/01/21 08:25:10;;;;;;;;;;;;;;;;;;5018133;28;20012;-24
2022/01/21 08:27:37;;;;;;;;;;;;;;;;;;5017222;28;19957;-24
2022/01/21 08:30:02;;;;;;;;;;;;;;;;;;5017491;28;19985;-24
2022/01/21 08:32:29;;;;;;;;;;;;;;;;;;5017463;28;20336;-24
2022/01/21 08:34:55;;;;;;;;;;;;;;;;;;5017277;28;19917;-23
2022/01/21 08:37:21;;;;;;;;;;;;;;;;;;5016943;28;19914;-23
2022/01/21 08:39:47;;;;;;;;;;;;;;;;;;5017263;28;20020;-23
2022/01/21 08:42:13;;;;;;;;;;;;;;;;;;5017273;28;19921;-25
2022/01/21 08:44:39;;;;;;;;;;;;;;;;;;5016756;28;20252;-24
2022/01/21 08:47:05;;;;;;;;;;;;;;;;;;5017116;28;19924;-24
2022/01/21 08:49:31;;;;;;;;;;;;;;;;;;5017205;28;19910;-24
2022/01/21 08:51:58;;;;;;;;;;;;;;;;;;5017199;28;19917;-24
2022/01/21 08:54:25;;;;;;;;;;;;;;;;;;5017208;28;19933;-24
2022/01/21 08:56:51;;;;;;;;;;;;;;;;;;5017318;28;19917;-24
2022/01/21 08:59:17;;;;;;;;;;;;;;;;;;5016966;28;20022;-25
2022/01/21 09:01:43;;;;;;;;;;;;;;;;;;5016927;28;19906;-24
2022/01/21 09:04:09;;;;;;;;;;;;;;;;;;5017421;28;19914;-24
2022/01/21 09:06:35;;;;;;;;;;;;;;;;;;5016799;28;20366;-24
2022/01/21 09:09:01;;;;;;;;;;;;;;;;;;5016369;28;19924;-24
2022/01/21 09:11:28;;;;;;;;;;;;;;;;;;5016760;28;19948;-25
2022/01/21 09:13:54;;;;;;;;;;;;;;;;;;5016694;28;19910;-24
2022/01/21 09:16:20;;;;;;;;;;;;;;;;;;5016077;28;19928;-24
2022/01/21 09:18:52;;;;;;;;;;;;;;;;;;5016230;28;19926;-24
2022/01/21 09:21:18;;;;;;;;;;;;;;;;;;5016357;28;19971;-25
2022/01/21 09:23:47;;;;;;;;;;;;;;;;;;5016276;28;20299;-25
2022/01/21 09:26:13;;;;;;;;;;;;;;;;;;5016023;28;19933;-25
2022/01/21 09:28:40;;;;;;;;;;;;;;;;;;5015934;28;19913;-25
2022/01/21 09:31:06;;;;;;;;;;;;;;;;;;5015999;28;19910;-25
2022/01/21 09:33:32;;;;;;;;;;;;;;;;;;5016055;28;20004;-25
2022/01/21 09:35:58;;;;;;;;;;;;;;;;;;5016060;28;19929;-25
2022/01/21 09:38:25;;;;;;;;;;;;;;;;;;5016278;28;20004;-25
2022/01/21 09:40:52;;;;;;;;;;;;;;;;;;5016186;28;19913;-25
2022/01/21 09:43:18;;;;;;;;;;;;;;;;;;5015670;28;19913;-25
2022/01/21 09:45:44;;;;;;;;;;;;;;;;;;5016704;28;20244;-25
2022/01/21 09:48:11;;;;;;;;;;;;;;;;;;5015622;28;19914;-25
2022/01/21 09:50:38;;;;;;;;;;;;;;;;;;5016304;28;20292;-26
2022/01/21 09:53:04;;;;;;;;;;;;;;;;;;5016006;28;19933;-26
2022/01/21 09:55:30;;;;;;;;;;;;;;;;;;5015038;28;19921;-24
2022/01/21 09:57:59;;;;;;;;;;;;;;;;;;5015170;28;20000;-25
2022/01/21 10:00:25;;;;;;;;;;;;;;;;;;5015023;28;19921;-24
2022/01/21 10:02:51;;;;;;;;;;;;;;;;;;5014930;28;19909;-24
2022/01/21 10:05:17;;;;;;;;;;;;;;;;;;5015059;28;19971;-25
2022/01/21 10:07:44;;;;;;;;;;;;;;;;;;5014783;28;19924;-25
2022/01/21 10:10:10;;;;;;;;;;;;;;;;;;5014473;28;19951;-25
2022/01/21 10:12:36;;;;;;;;;;;;;;;;;;5014801;28;20328;-25
2022/01/21 10:15:02;;;;;;;;;;;;;;;;;;5014678;28;20310;-25
2022/01/21 10:17:28;;;;;;;;;;;;;;;;;;5014586;28;20248;-25
2022/01/21 10:19:54;;;;;;;;;;;;;;;;;;5014551;28;20417;-25
2022/01/21 10:22:21;;;;;;;;;;;;;;;;;;5014615;28;19952;-25
2022/01/21 10:24:47;;;;;;;;;;;;;;;;;;5015326;28;19926;-24
2022/01/21 10:27:13;;;;;;;;;;;;;;;;;;5015051;28;19910;-25
2022/01/21 10:29:39;;;;;;;;;;;;;;;;;;5014366;28;19913;-25
2022/01/21 10:32:06;;;;;;;;;;;;;;;;;;5014448;28;20313;-25
2022/01/21 10:34:33;;;;;;;;;;;;;;;;;;5014304;28;19913;-25
2022/01/21 10:37:06;;;;;;;;;;;;;;;;;;5014909;28;20376;-25
2022/01/21 10:39:34;;;;;;;;;;;;;;;;;;5014830;28;20362;-25
2022/01/21 10:42:01;;;;;;;;;;;;;;;;;;5014766;28;19910;-25
2022/01/21 10:44:30;;;;;;;;;;;;;;;;;;5015228;28;19913;-25
2022/01/21 10:46:56;;;;;;;;;;;;;;;;;;5014653;28;19913;-25
2022/01/21 10:49:22;;;;;;;;;;;;;;;;;;5014565;28;19996;-25
2022/01/21 10:51:48;;;;;;;;;;;;;;;;;;5014566;28;20336;-25
2022/01/21 10:54:14;;;;;;;;;;;;;;;;;;5013465;28;19913;-25
2022/01/21 10:56:40;;;;;;;;;;;;;;;;;;5014458;28;19924;-25
2022/01/21 10:59:06;;;;;;;;;;;;;;;;;;5013402;28;19913;-25
2022/01/21 11:01:35;;;;;;;;;;;;;;;;;;5013410;28;19914;-23
2022/01/21 11:04:01;;;;;;;;;;;;;;;;;;5014287;28;19910;-23
2022/01/21 11:06:35;;;;;;;;;;;;;;;;;;5014365;28;19936;-24
2022/01/21 11:09:01;;;;;;;;;;;;;;;;;;5013218;28;20356;-24
2022/01/21 11:11:28;;;;;;;;;;;;;;;;;;5014436;28;19927;-24
2022/01/21 11:13:55;;;;;;;;;;;;;;;;;;5014786;28;19909;-24
2022/01/21 11:16:23;;;;;;;;;;;;;;;;;;5014332;28;19918;-25
2022/01/21 11:18:51;;;;;;;;;;;;;;;;;;5014051;28;20427;-24
2022/01/21 11:21:17;;;;;;;;;;;;;;;;;;5015600;28;19924;-24
2022/01/21 11:23:43;;;;;;;;;;;;;;;;;;5017599;28;19921;-24
2022/01/21 11:26:12;;;;;;;;;;;;;;;;;;5018454;28;19913;-24
2022/01/21 11:28:41;;;;;;;;;;;;;;;;;;5018474;28;19914;-23
2022/01/21 11:31:07;;;;;;;;;;;;;;;;;;5018369;28;20014;-23
2022/01/21 11:33:33;;;;;;;;;;;;;;;;;;5018314;28;19913;-24
2022/01/21 11:36:00;;;;;;;;;;;;;;;;;;5018899;28;20378;-24
2022/01/21 11:38:26;;;;;;;;;;;;;;;;;;5017839;28;20360;-24
2022/01/21 11:40:54;;;;;;;;;;;;;;;;;;5017873;28;19946;-24
2022/01/21 11:43:20;;;;;;;;;;;;;;;;;;5017662;28;20349;-24
2022/01/21 11:50:48;;;;;;;;;;;;;;;;;;5017710;28;19934;-24
2022/01/21 11:53:17;;;;;;;;;;;;;;;;;;5017800;28;20229;-24
2022/01/21 11:55:47;;;;;;;;;;;;;;;;;;5018313;28;19975;-24
2022/01/21 11:58:13;;;;;;;;;;;;;;;;;;5017756;28;20340;-24
2022/01/21 12:00:42;;;;;;;;;;;;;;;;;;5017717;28;20000;-24
2022/01/21 12:03:09;;;;;;;;;;;;;;;;;;5017876;28;20395;-24
2022/01/21 12:05:37;;;;;;;;;;;;;;;;;;5018334;28;19919;-24
2022/01/21 12:08:04;;;;;;;;;;;;;;;;;;5017734;28;19996;-24
2022/01/21 12:10:31;;;;;;;;;;;;;;;;;;5016966;28;19914;-24
2022/01/21 12:13:01;;;;;;;;;;;;;;;;;;5015799;28;19949;-25
2022/01/21 12:15:47;;;;;;;;;;;;;;;;;;5016810;28;20433;-24
2022/01/21 12:20:46;;;;;;;;;;;;;;;;;;5016725;28;19945;-25
2022/01/21 12:23:15;;;;;;;;;;;;;;;;;;5016931;28;20237;-23
2022/01/21 12:25:42;;;;;;;;;;;;;;;;;;5016672;28;19955;-24
2022/01/21 12:28:08;;;;;;;;;;;;;;;;;;5016461;28;19913;-24
2022/01/21 12:30:35;;;;;;;;;;;;;;;;;;5016956;28;20354;-23
2022/01/21 12:33:07;;;;;;;;;;;;;;;;;;5015709;28;19913;-23
2022/01/21 12:35:36;;;;;;;;;;;;;;;;;;5016732;28;19923;-24
2022/01/21 12:39:05;;;;;;;;;;;;;;;;;;5017067;28;19921;-23
2022/01/21 12:40:48;;;;;;;;;;;;;;;;;;5016939;28;20014;-24
2022/01/21 12:43:16;;;;;;;;;;;;;;;;;;5017013;28;19920;-23
2022/01/21 12:45:42;;;;;;;;;;;;;;;;;;5017445;28;20206;-23
2022/01/21 12:48:08;;;;;;;;;;;;;;;;;;5016750;28;19910;-24
2022/01/21 12:50:40;;;;;;;;;;;;;;;;;;5017375;28;19923;-24
2022/01/21 12:53:17;;;;;;;;;;;;;;;;;;5016797;28;19910;-24
2022/01/21 12:55:56;;;;;;;;;;;;;;;;;;5015500;28;19917;-24
2022/01/21 12:58:22;;;;;;;;;;;;;;;;;;5016667;28;19932;-24
2022/01/21 13:00:48;;;;;;;;;;;;;;;;;;5016833;28;19953;-23
2022/01/21 13:03:14;;;;;;;;;;;;;;;;;;5016689;28;19964;-24
2022/01/21 13:05:41;;;;;;;;;;;;;;;;;;5017254;28;20004;-24
2022/01/21 13:08:08;;;;;;;;;;;;;;;;;;5016374;28;19955;-23
2022/01/21 13:10:34;;;;;;;;;;;;;;;;;;5016800;28;19921;-23
2022/01/21 13:15:26;;;;;;;;;;;;;;;;;;5016311;28;19994;-24
2022/01/21 13:17:53;;;;;;;;;;;;;;;;;;5016720;28;19919;-24
2022/01/21 13:20:20;;;;;;;;;;;;;;;;;;5016108;28;19960;-24
2022/01/21 13:22:46;;;;;;;;;;;;;;;;;;5016453;28;19932;-24
2022/01/21 13:25:17;;;;;;;;;;;;;;;;;;5016018;28;19996;-24
2022/01/21 13:27:44;;;;;;;;;;;;;;;;;;5015914;28;19913;-24
2022/01/21 13:30:10;;;;;;;;;;;;;;;;;;5015931;28;19913;-24
2022/01/21 13:32:37;;;;;;;;;;;;;;;;;;5016030;28;19909;-24
2022/01/21 13:35:03;;;;;;;;;;;;;;;;;;5015861;28;19979;-23
2022/01/21 13:37:29;;;;;;;;;;;;;;;;;;5015742;28;19925;-25
2022/01/21 13:39:58;;;;;;;;;;;;;;;;;;5014941;28;19913;-23
2022/01/21 13:42:26;;;;;;;;;;;;;;;;;;5015778;28;19917;-24
2022/01/21 13:44:52;;;;;;;;;;;;;;;;;;5014530;28;20012;-23
2022/01/21 13:47:19;;;;;;;;;;;;;;;;;;5015832;28;19975;-24
2022/01/21 13:49:49;;;;;;;;;;;;;;;;;;5016409;28;19920;-24
2022/01/21 13:52:15;;;;;;;;;;;;;;;;;;5015892;28;20039;-23
2022/01/21 13:54:44;;;;;;;;;;;;;;;;;;5016224;28;19920;-23
2022/01/21 13:57:12;;;;;;;;;;;;;;;;;;5015244;28;19952;-24
2022/01/21 13:59:40;;;;;;;;;;;;;;;;;;5015663;28;20008;-24
2022/01/21 14:02:09;;;;;;;;;;;;;;;;;;5014641;28;20055;-25
2022/01/21 14:04:35;;;;;;;;;;;;;;;;;;5014798;28;19913;-23
2022/01/21 14:07:03;;;;;;;;;;;;;;;;;;5016183;28;19925;-23
2022/01/21 14:09:29;;;;;;;;;;;;;;;;;;5015762;28;19924;-23
2022/01/21 14:11:56;;;;;;;;;;;;;;;;;;5016068;28;19913;-23
2022/01/21 14:14:25;;;;;;;;;;;;;;;;;;5015465;28;20234;-24
2022/01/21 14:16:53;;;;;;;;;;;;;;;;;;5015493;28;20337;-24
2022/01/21 14:19:22;;;;;;;;;;;;;;;;;;5014749;28;19921;-24
2022/01/21 14:21:48;;;;;;;;;;;;;;;;;;5015507;28;20265;-23
2022/01/21 14:24:14;;;;;;;;;;;;;;;;;;5015570;28;19914;-23
2022/01/21 14:26:40;;;;;;;;;;;;;;;;;;5016039;28;19905;-24
2022/01/21 14:29:07;;;;;;;;;;;;;;;;;;5015208;28;20004;-24
2022/01/21 14:31:33;;;;;;;;;;;;;;;;;;5015221;28;19924;-24
2022/01/21 14:34:00;;;;;;;;;;;;;;;;;;5016121;28;19924;-24
2022/01/21 14:36:28;;;;;;;;;;;;;;;;;;5015157;28;20008;-24
2022/01/21 14:38:54;;;;;;;;;;;;;;;;;;5015067;28;19914;-24
2022/01/21 14:41:24;;;;;;;;;;;;;;;;;;5015546;28;19924;-24
2022/01/21 14:46:41;;;;;;;;;;;;;;;;;;5015249;28;19924;-24
2022/01/21 14:49:07;;;;;;;;;;;;;;;;;;5014948;28;20320;-23
2022/01/21 14:51:34;;;;;;;;;;;;;;;;;;5014993;28;19913;-23
2022/01/21 14:54:01;;;;;;;;;;;;;;;;;;5014791;28;19952;-23
2022/01/21 14:56:28;;;;;;;;;;;;;;;;;;5014588;28;19921;-24
2022/01/21 14:58:54;;;;;;;;;;;;;;;;;;5014924;28;19910;-23
2022/01/21 15:01:20;;;;;;;;;;;;;;;;;;5014930;28;19920;-23
2022/01/21 15:03:46;;;;;;;;;;;;;;;;;;5015509;28;19921;-23
2022/01/21 15:06:14;;;;;;;;;;;;;;;;;;5014753;28;19913;-24
2022/01/21 15:08:45;;;;;;;;;;;;;;;;;;5014704;28;19989;-24
2022/01/21 15:11:20;;;;;;;;;;;;;;;;;;5014680;28;19913;-23
2022/01/21 15:16:31;;;;;;;;;;;;;;;;;;5014760;28;19929;-23
2022/01/21 15:18:59;;;;;;;;;;;;;;;;;;5018476;28;20348;-23
2022/01/21 15:21:28;;;;;;;;;;;;;;;;;;5014750;28;19932;-23
2022/01/21 15:23:59;;;;;;;;;;;;;;;;;;5014808;28;19914;-23
2022/01/21 15:26:27;;;;;;;;;;;;;;;;;;5014706;28;19921;-23
2022/01/21 15:28:56;;;;;;;;;;;;;;;;;;5014807;28;20000;-23
2022/01/21 15:31:22;;;;;;;;;;;;;;;;;;5014695;28;19928;-23
2022/01/21 15:33:50;;;;;;;;;;;;;;;;;;5014423;28;19917;-23
2022/01/21 15:36:18;;;;;;;;;;;;;;;;;;5013292;28;19963;-24
2022/01/21 15:38:44;;;;;;;;;;;;;;;;;;5014668;28;19972;-23
2022/01/21 15:41:11;;;;;;;;;;;;;;;;;;5014428;28;19910;-23
2022/01/21 15:43:39;;;;;;;;;;;;;;;;;;5014966;28;19917;-23
2022/01/21 15:46:05;;;;;;;;;;;;;;;;;;5014398;28;19920;-23
2022/01/21 15:48:33;;;;;;;;;;;;;;;;;;5014270;28;19945;-22
2022/01/21 15:50:59;;;;;;;;;;;;;;;;;;5014457;28;19910;-23
2022/01/21 15:53:25;;;;;;;;;;;;;;;;;;5014309;28;19932;-23
2022/01/21 15:55:52;;;;;;;;;;;;;;;;;;5013602;28;20321;-23
2022/01/21 15:58:18;;;;;;;;;;;;;;;;;;5012032;28;19925;-23
2022/01/21 16:00:45;;;;;;;;;;;;;;;;;;5013704;28;19925;-23
2022/01/21 16:03:13;;;;;;;;;;;;;;;;;;5013524;28;19939;-23
2022/01/21 16:05:39;;;;;;;;;;;;;;;;;;5013108;28;19945;-24
2022/01/21 16:08:07;;;;;;;;;;;;;;;;;;5014238;28;19977;-23
2022/01/21 16:10:33;;;;;;;;;;;;;;;;;;5017235;28;19968;-23
2022/01/21 16:12:59;;;;;;;;;;;;;;;;;;5017225;28;19910;-24
2022/01/21 16:15:28;;;;;;;;;;;;;;;;;;5015979;28;19914;-25
2022/01/21 16:17:54;;;;;;;;;;;;;;;;;;5016876;28;19971;-23
2022/01/21 16:20:20;;;;;;;;;;;;;;;;;;5016689;28;19981;-24
2022/01/21 16:22:48;;;;;;;;;;;;;;;;;;5017702;28;19917;-24
2022/01/21 16:25:14;;;;;;;;;;;;;;;;;;5017292;28;19921;-24
2022/01/21 16:27:40;;;;;;;;;;;;;;;;;;5017789;28;20239;-25
2022/01/21 16:30:08;;;;;;;;;;;;;;;;;;5017558;28;19966;-24
2022/01/21 16:32:34;;;;;;;;;;;;;;;;;;5018055;28;20339;-25
2022/01/21 16:35:01;;;;;;;;;;;;;;;;;;5017345;28;19963;-22
2022/01/21 16:37:27;;;;;;;;;;;;;;;;;;5017280;28;20406;-23
2022/01/21 16:39:56;;;;;;;;;;;;;;;;;;5017299;28;19913;-23
2022/01/21 16:42:23;;;;;;;;;;;;;;;;;;5017199;28;19910;-23
2022/01/21 16:44:49;;;;;;;;;;;;;;;;;;5017299;28;19913;-23
2022/01/21 16:47:15;;;;;;;;;;;;;;;;;;5017523;28;20287;-23
2022/01/21 16:49:43;;;;;;;;;;;;;;;;;;5017127;28;20017;-27
2022/01/21 16:52:09;;;;;;;;;;;;;;;;;;5017102;28;19925;-24
2022/01/21 16:54:36;;;;;;;;;;;;;;;;;;5017122;28;20232;-24
2022/01/21 16:57:02;;;;;;;;;;;;;;;;;;5017268;28;20004;-23
2022/01/21 16:59:28;;;;;;;;;;;;;;;;;;5016914;28;20299;-24
2022/01/21 17:01:55;;;;;;;;;;;;;;;;;;5016790;28;20374;-23
2022/01/21 17:04:25;;;;;;;;;;;;;;;;;;5016148;28;20219;-24
2022/01/21 17:06:51;;;;;;;;;;;;;;;;;;5016567;28;20004;-24
2022/01/21 17:09:18;;;;;;;;;;;;;;;;;;5016910;28;19909;-24
2022/01/21 17:11:47;;;;;;;;;;;;;;;;;;5016909;28;19921;-24
2022/01/21 17:14:13;;;;;;;;;;;;;;;;;;5015632;28;20000;-24
2022/01/21 17:16:40;;;;;;;;;;;;;;;;;;5016986;28;20060;-24
2022/01/21 17:19:10;;;;;;;;;;;;;;;;;;5015920;28;19917;-23
2022/01/21 17:21:36;;;;;;;;;;;;;;;;;;5016718;28;19914;-23
2022/01/21 17:24:02;;;;;;;;;;;;;;;;;;5016595;28;20307;-23
2022/01/21 17:26:30;;;;;;;;;;;;;;;;;;5016893;28;20241;-23
2022/01/21 17:28:56;;;;;;;;;;;;;;;;;;5016261;28;19919;-23
2022/01/21 17:31:22;;;;;;;;;;;;;;;;;;5016410;28;19952;-24
2022/01/21 17:33:50;;;;;;;;;;;;;;;;;;5016918;28;20017;-24
2022/01/21 17:36:16;;;;;;;;;;;;;;;;;;5016156;28;19917;-24
2022/01/21 17:38:44;;;;;;;;;;;;;;;;;;5016272;28;19913;-24
2022/01/21 17:41:10;;;;;;;;;;;;;;;;;;5016686;28;19909;-24
2022/01/21 17:43:37;;;;;;;;;;;;;;;;;;5016115;28;19920;-24
2022/01/21 17:46:03;;;;;;;;;;;;;;;;;;5016182;28;19949;-24
2022/01/21 17:48:35;;;;;;;;;;;;;;;;;;5016321;28;19916;-25
2022/01/21 17:51:02;;;;;;;;;;;;;;;;;;5016547;28;19948;-23